Time;durP1;ratioP1;P1;durP2;ratioP2;P2;SDS_P1;SDS_P2;PMS_P1;PMS_P2;Temp;Humidity;BMP_temperature;BMP_pressure;BME280_temperature;BME280_humidity;BME280_pressure;Samples;Min_cycle;Max_cycle;Signal;HPM_P1;HPM_P2
2023/05/01 00:00:48;;;;;;;13.00;8.77;;;11.60;23.30;;;;;;5051404;28;20465;-73
2023/05/01 00:03:16;;;;;;;12.33;9.23;;;11.60;23.30;;;;;;5059525;28;20502;-73
2023/05/01 00:05:43;;;;;;;11.60;8.70;;;11.60;23.40;;;;;;5057301;28;20461;-73
2023/05/01 00:08:10;;;;;;;12.77;8.50;;;11.60;23.50;;;;;;5060071;28;20480;-73
2023/05/01 00:10:38;;;;;;;12.13;8.30;;;11.60;23.60;;;;;;5058240;28;20948;-72
2023/05/01 00:13:06;;;;;;;13.40;9.07;;;11.60;23.60;;;;;;5061061;28;20500;-73
2023/05/01 00:15:33;;;;;;;12.20;9.10;;;11.60;23.50;;;;;;5046866;28;20469;-73
2023/05/01 00:18:00;;;;;;;12.60;9.70;;;11.60;23.60;;;;;;5059095;28;20572;-72
2023/05/01 00:20:27;;;;;;;13.70;9.53;;;11.60;23.50;;;;;;5059272;28;20457;-73
2023/05/01 00:22:54;;;;;;;12.70;10.00;;;11.60;23.60;;;;;;5057092;28;20471;-73
2023/05/01 00:25:21;;;;;;;12.57;10.00;;;11.60;23.60;;;;;;5052662;28;21068;-73
2023/05/01 00:27:48;;;;;;;11.63;8.90;;;11.60;23.70;;;;;;5059987;28;20481;-73
2023/05/01 00:30:16;;;;;;;16.83;10.43;;;11.60;23.70;;;;;;5058317;28;20485;-73
2023/05/01 00:32:43;;;;;;;13.10;9.57;;;11.60;23.80;;;;;;5060545;28;20485;-73
2023/05/01 00:35:11;;;;;;;10.80;8.80;;;11.60;23.80;;;;;;5050554;28;20464;-73
2023/05/01 00:37:38;;;;;;;12.17;9.20;;;11.60;23.90;;;;;;5056902;28;20571;-73
2023/05/01 00:40:05;;;;;;;12.70;8.50;;;11.60;23.70;;;;;;5049886;28;20461;-73
2023/05/01 00:42:36;;;;;;;13.90;9.47;;;11.60;23.90;;;;;;5056163;28;20468;-72
2023/05/01 00:45:03;;;;;;;13.27;9.33;;;11.50;24.00;;;;;;5056805;28;20457;-73
2023/05/01 00:47:32;;;;;;;13.80;9.97;;;11.50;24.10;;;;;;5053144;28;21116;-73
2023/05/01 00:49:59;;;;;;;13.33;9.70;;;11.50;24.10;;;;;;5057696;28;20768;-73
2023/05/01 00:52:26;;;;;;;11.20;9.67;;;11.50;24.20;;;;;;5061195;28;20462;-73
2023/05/01 00:54:54;;;;;;;11.60;9.20;;;11.50;24.10;;;;;;5054988;28;20458;-73
2023/05/01 00:57:21;;;;;;;16.00;9.80;;;11.50;24.10;;;;;;5057717;28;20497;-73
2023/05/01 00:59:49;;;;;;;13.60;8.70;;;11.50;24.00;;;;;;5058428;28;20460;-74
2023/05/01 01:02:16;;;;;;;14.80;8.40;;;11.50;24.10;;;;;;5056191;28;20480;-74
2023/05/01 01:04:46;;;;;;;14.27;10.17;;;11.50;24.00;;;;;;5056780;28;20537;-74
2023/05/01 01:07:20;;;;;;;12.93;8.50;;;11.50;24.10;;;;;;5052312;28;20532;-74
2023/05/01 01:09:56;;;;;;;11.77;9.00;;;11.50;24.20;;;;;;5053438;28;20966;-74
2023/05/01 01:12:31;;;;;;;10.87;8.13;;;11.50;24.20;;;;;;5056923;28;20465;-75
2023/05/01 01:15:07;;;;;;;14.40;9.40;;;11.40;24.10;;;;;;5055541;28;20456;-74
2023/05/01 01:17:41;;;;;;;13.17;11.00;;;11.40;24.10;;;;;;5055366;28;20480;-74
2023/05/01 01:20:31;;;;;;;14.63;9.00;;;11.40;24.10;;;;;;5055767;28;20906;-74
2023/05/01 01:23:11;;;;;;;9.67;7.50;;;11.40;24.30;;;;;;5055221;28;20461;-74
2023/05/01 01:26:03;;;;;;;11.40;8.93;;;11.40;24.20;;;;;;5055759;28;20985;-74
2023/05/01 01:28:55;;;;;;;11.67;8.30;;;11.40;24.40;;;;;;5071482;22;20488;-71
2023/05/01 01:31:32;;;;;;;10.23;8.50;;;11.40;24.40;;;;;;5032557;28;20880;-71
2023/05/01 01:34:14;;;;;;;10.20;7.90;;;11.40;24.40;;;;;;5046539;28;20478;-72
2023/05/01 01:36:46;;;;;;;12.17;8.13;;;11.30;24.40;;;;;;5049710;28;20484;-73
2023/05/01 01:39:23;;;;;;;8.93;7.20;;;11.40;24.30;;;;;;5044102;28;20470;-71
2023/05/01 01:41:53;;;;;;;9.53;7.60;;;11.30;24.20;;;;;;5041266;28;20543;-73
2023/05/01 01:44:28;;;;;;;11.50;8.13;;;11.30;24.20;;;;;;5048212;28;20473;-72
2023/05/01 01:46:56;;;;;;;13.57;8.40;;;11.30;24.20;;;;;;5044481;28;20472;-72
2023/05/01 01:49:27;;;;;;;12.60;9.27;;;11.30;24.10;;;;;;5047426;28;20465;-72
2023/05/01 01:51:55;;;;;;;12.13;8.03;;;11.30;24.20;;;;;;5045942;28;20508;-72
2023/05/01 01:54:28;;;;;;;10.90;8.13;;;11.30;24.10;;;;;;5038496;28;20465;-71
2023/05/01 01:56:57;;;;;;;11.83;7.93;;;11.30;24.20;;;;;;5044190;28;20901;-71
2023/05/01 01:59:25;;;;;;;12.20;9.20;;;11.30;24.30;;;;;;5042242;28;20469;-72
2023/05/01 02:01:54;;;;;;;10.83;8.63;;;11.30;25.00;;;;;;5047428;28;20492;-67
2023/05/01 02:04:25;;;;;;;13.10;10.30;;;11.30;24.40;;;;;;5046579;28;20461;-67
2023/05/01 02:06:53;;;;;;;10.13;8.10;;;11.30;24.30;;;;;;5045612;28;20460;-67
2023/05/01 02:09:21;;;;;;;13.47;8.90;;;11.30;24.40;;;;;;5046191;28;20843;-67
2023/05/01 02:11:49;;;;;;;12.07;8.50;;;11.30;24.40;;;;;;5046623;28;20573;-67
2023/05/01 02:14:18;;;;;;;10.40;8.17;;;11.30;24.50;;;;;;5048096;28;20465;-68
2023/05/01 02:16:46;;;;;;;10.87;8.20;;;11.30;24.60;;;;;;5051405;28;20485;-68
2023/05/01 02:19:14;;;;;;;11.27;8.60;;;11.30;24.70;;;;;;5051795;28;20971;-68
2023/05/01 02:21:44;;;;;;;10.90;8.03;;;11.30;24.70;;;;;;5046259;28;20481;-68
2023/05/01 02:24:12;;;;;;;11.10;8.30;;;11.20;24.60;;;;;;5044445;28;20561;-67
2023/05/01 02:26:42;;;;;;;11.67;8.83;;;11.20;24.80;;;;;;5053520;28;20485;-67
2023/05/01 02:29:10;;;;;;;9.83;7.50;;;11.10;24.80;;;;;;5055705;28;21008;-68
2023/05/01 02:31:37;;;;;;;10.30;8.40;;;11.10;25.10;;;;;;5045673;28;20498;-68
2023/05/01 02:34:04;;;;;;;12.37;9.63;;;11.10;25.20;;;;;;5044268;28;20466;-68
2023/05/01 02:36:32;;;;;;;12.40;10.77;;;11.10;25.80;;;;;;5046318;28;20504;-67
2023/05/01 02:39:00;;;;;;;14.67;10.73;;;11.10;25.20;;;;;;5046514;28;20977;-68
2023/05/01 02:41:28;;;;;;;12.83;9.57;;;11.10;25.30;;;;;;5043483;28;20486;-67
2023/05/01 02:44:02;;;;;;;10.80;8.10;;;11.10;25.30;;;;;;5044376;28;20462;-67
2023/05/01 02:46:32;;;;;;;13.07;8.00;;;11.10;25.40;;;;;;5041910;28;20982;-68
2023/05/01 02:49:00;;;;;;;11.40;8.30;;;11.10;25.30;;;;;;5048585;28;20462;-68
2023/05/01 02:51:28;;;;;;;12.53;8.70;;;11.10;25.60;;;;;;5048600;28;20486;-68
2023/05/01 02:53:55;;;;;;;10.60;7.83;;;11.10;25.50;;;;;;5036059;28;20474;-66
2023/05/01 02:56:25;;;;;;;11.80;8.60;;;11.10;25.60;;;;;;5040080;28;20831;-67
2023/05/01 02:58:52;;;;;;;11.40;8.10;;;11.10;25.60;;;;;;5050852;28;20512;-67
2023/05/01 03:01:19;;;;;;;13.00;9.40;;;11.10;25.70;;;;;;5046961;28;20497;-69
2023/05/01 03:03:46;;;;;;;10.90;8.87;;;11.00;25.60;;;;;;5040095;28;20474;-67
2023/05/01 03:06:13;;;;;;;11.87;9.53;;;11.00;25.70;;;;;;5045877;28;20473;-68
2023/05/01 03:08:40;;;;;;;12.30;8.60;;;11.00;25.80;;;;;;5051725;28;21005;-68
2023/05/01 03:11:07;;;;;;;10.60;8.33;;;11.00;25.70;;;;;;5044903;28;20524;-68
2023/05/01 03:13:36;;;;;;;13.97;9.77;;;11.10;25.80;;;;;;5048269;28;20970;-67
2023/05/01 03:16:03;;;;;;;12.40;10.10;;;11.10;25.80;;;;;;5045508;28;20466;-68
2023/05/01 03:18:30;;;;;;;11.93;8.97;;;11.10;25.80;;;;;;5046211;28;20481;-68
2023/05/01 03:20:57;;;;;;;11.10;8.17;;;11.10;25.80;;;;;;5044304;28;20501;-67
2023/05/01 03:23:24;;;;;;;13.93;8.93;;;11.00;25.90;;;;;;5050266;28;20471;-68
2023/05/01 03:25:51;;;;;;;10.77;8.40;;;11.00;25.90;;;;;;5046029;28;20462;-68
2023/05/01 03:28:18;;;;;;;11.20;8.83;;;11.00;25.90;;;;;;5044789;28;20477;-68
2023/05/01 03:30:46;;;;;;;12.57;8.50;;;11.10;25.90;;;;;;5045927;28;20477;-68
2023/05/01 03:33:12;;;;;;;10.90;8.27;;;11.00;25.90;;;;;;5046178;28;20502;-68
2023/05/01 03:35:39;;;;;;;10.13;8.23;;;11.00;25.90;;;;;;5046982;28;20481;-68
2023/05/01 03:38:06;;;;;;;12.03;9.97;;;11.10;25.80;;;;;;5041422;28;20480;-68
2023/05/01 03:40:33;;;;;;;12.63;8.73;;;11.10;25.80;;;;;;5046041;28;20921;-68
2023/05/01 03:43:00;;;;;;;12.47;9.00;;;11.10;25.70;;;;;;5047228;28;20466;-68
2023/05/01 03:45:27;;;;;;;10.80;8.80;;;11.10;25.90;;;;;;5045910;28;20462;-67
2023/05/01 03:47:56;;;;;;;12.80;8.80;;;11.10;25.70;;;;;;5045495;28;20458;-68
2023/05/01 03:50:22;;;;;;;11.67;8.47;;;11.10;25.90;;;;;;5044673;28;21100;-67
2023/05/01 03:52:49;;;;;;;12.40;8.93;;;11.10;26.10;;;;;;5048733;28;20474;-68
2023/05/01 03:55:16;;;;;;;12.23;8.60;;;11.10;26.30;;;;;;5042566;28;20466;-67
2023/05/01 03:57:43;;;;;;;11.67;9.20;;;11.10;26.40;;;;;;5046960;28;20481;-68
2023/05/01 04:00:11;;;;;;;11.00;8.53;;;11.10;26.40;;;;;;5043987;28;20831;-67
2023/05/01 04:02:38;;;;;;;12.67;8.90;;;11.10;26.40;;;;;;5047971;28;20478;-68
2023/05/01 04:05:07;;;;;;;13.37;9.57;;;11.10;26.50;;;;;;5047721;28;20466;-68
2023/05/01 04:07:34;;;;;;;14.17;9.47;;;11.10;26.70;;;;;;5048996;28;20964;-67
2023/05/01 04:10:00;;;;;;;12.27;8.20;;;11.10;26.80;;;;;;5047305;28;21016;-67
2023/05/01 04:12:27;;;;;;;13.03;9.50;;;11.10;26.80;;;;;;5044821;28;20459;-69
2023/05/01 04:14:54;;;;;;;11.80;9.10;;;11.10;27.00;;;;;;5056637;28;20457;-67
2023/05/01 04:17:21;;;;;;;14.20;9.83;;;11.10;27.10;;;;;;5055697;28;20485;-68
2023/05/01 04:19:48;;;;;;;10.90;9.07;;;11.10;27.10;;;;;;5045776;28;20472;-68
2023/05/01 04:22:16;;;;;;;9.97;7.90;;;11.10;27.10;;;;;;5049050;28;20539;-68
2023/05/01 04:24:43;;;;;;;15.53;8.80;;;11.20;27.30;;;;;;5042988;28;20946;-68
2023/05/01 04:27:10;;;;;;;12.50;10.00;;;11.20;27.30;;;;;;5044445;28;20458;-68
2023/05/01 04:29:36;;;;;;;12.20;10.17;;;11.10;28.20;;;;;;5041529;28;20469;-68
2023/05/01 04:32:03;;;;;;;11.50;9.20;;;11.20;28.10;;;;;;5045741;28;20489;-68
2023/05/01 04:34:30;;;;;;;11.97;9.30;;;11.10;28.20;;;;;;5044043;28;20497;-68
2023/05/01 04:36:57;;;;;;;11.07;8.87;;;11.10;28.20;;;;;;5043563;28;20466;-68
2023/05/01 04:39:25;;;;;;;11.53;9.00;;;11.20;28.50;;;;;;5045395;28;20465;-68
2023/05/01 04:41:52;;;;;;;14.40;9.30;;;11.20;28.70;;;;;;5040203;28;20490;-68
2023/05/01 04:44:19;;;;;;;11.50;9.73;;;11.20;28.90;;;;;;5044360;28;21331;-68
2023/05/01 04:46:46;;;;;;;14.57;9.80;;;11.20;29.10;;;;;;5041524;28;20469;-69
2023/05/01 04:49:13;;;;;;;12.17;10.20;;;11.10;29.40;;;;;;5043629;28;20950;-68
2023/05/01 04:51:40;;;;;;;13.00;10.40;;;11.10;29.40;;;;;;5048546;28;20489;-69
2023/05/01 04:54:06;;;;;;;15.40;9.27;;;11.10;30.30;;;;;;5042421;28;20467;-68
2023/05/01 04:56:34;;;;;;;13.50;10.87;;;11.10;30.90;;;;;;5043660;28;20474;-68
2023/05/01 04:59:02;;;;;;;15.07;11.17;;;11.10;31.40;;;;;;5038106;28;20475;-68
2023/05/01 05:01:29;;;;;;;12.17;10.00;;;11.10;32.00;;;;;;5045131;28;20492;-68
2023/05/01 05:03:55;;;;;;;15.77;10.30;;;11.10;32.10;;;;;;5043281;28;20466;-68
2023/05/01 05:06:22;;;;;;;12.07;9.67;;;11.10;32.00;;;;;;5044419;28;20482;-67
2023/05/01 05:08:50;;;;;;;11.70;9.70;;;11.10;32.30;;;;;;5039535;28;20458;-68
2023/05/01 05:11:17;;;;;;;13.70;9.73;;;11.10;32.20;;;;;;5042441;28;20851;-68
2023/05/01 05:13:46;;;;;;;11.60;10.20;;;11.10;32.20;;;;;;5041339;28;20458;-68
2023/05/01 05:16:14;;;;;;;10.00;8.40;;;11.20;31.90;;;;;;5045698;28;20473;-67
2023/05/01 05:18:40;;;;;;;12.97;10.43;;;11.20;32.30;;;;;;5048467;28;20481;-68
2023/05/01 05:21:09;;;;;;;11.30;9.27;;;11.20;32.10;;;;;;5039575;28;21650;-68
2023/05/01 05:23:36;;;;;;;12.00;9.30;;;11.20;32.20;;;;;;5045517;28;20854;-68
2023/05/01 05:26:04;;;;;;;13.13;10.50;;;11.20;32.10;;;;;;5041670;28;20466;-67
2023/05/01 05:28:31;;;;;;;18.80;10.87;;;11.30;32.30;;;;;;5044082;28;20467;-68
2023/05/01 05:30:59;;;;;;;11.80;8.63;;;11.30;32.50;;;;;;5047408;28;20477;-68
2023/05/01 05:33:28;;;;;;;12.10;9.90;;;11.30;32.70;;;;;;5043074;28;20470;-68
2023/05/01 05:35:54;;;;;;;11.20;9.40;;;11.30;32.50;;;;;;5042590;28;21049;-70
2023/05/01 05:38:22;;;;;;;11.70;9.17;;;11.30;32.70;;;;;;5040788;28;20466;-68
2023/05/01 05:40:48;;;;;;;12.20;9.70;;;11.30;32.70;;;;;;5044466;28;21101;-68
2023/05/01 05:43:15;;;;;;;12.87;9.07;;;11.30;33.10;;;;;;5048809;28;20464;-67
2023/05/01 05:45:42;;;;;;;12.00;9.00;;;11.30;33.30;;;;;;5041045;28;20520;-69
2023/05/01 05:48:10;;;;;;;11.63;10.27;;;11.40;33.30;;;;;;5049812;28;20475;-69
2023/05/01 05:50:37;;;;;;;12.50;10.23;;;11.40;33.20;;;;;;5046246;28;20862;-68
2023/05/01 05:53:04;;;;;;;11.07;9.37;;;11.40;33.00;;;;;;5049314;28;20462;-68
2023/05/01 05:55:30;;;;;;;12.20;9.37;;;11.30;33.10;;;;;;5045155;28;20540;-68
2023/05/01 05:57:57;;;;;;;13.70;8.93;;;11.30;33.00;;;;;;5048841;28;21023;-67
2023/05/01 06:00:24;;;;;;;12.70;8.90;;;11.40;32.80;;;;;;5044035;28;20835;-68
2023/05/01 06:02:50;;;;;;;10.63;9.07;;;11.40;32.70;;;;;;5047565;28;21836;-67
2023/05/01 06:05:19;;;;;;;11.10;9.03;;;11.40;32.70;;;;;;5047505;28;20478;-67
2023/05/01 06:07:46;;;;;;;12.47;10.10;;;11.40;32.70;;;;;;5053678;28;20471;-67
2023/05/01 06:10:13;;;;;;;27.57;15.80;;;11.40;32.70;;;;;;5043328;28;20465;-69
2023/05/01 06:12:40;;;;;;;72.37;40.60;;;11.40;32.70;;;;;;5046939;28;20462;-68
2023/05/01 06:15:07;;;;;;;52.03;30.97;;;11.40;32.60;;;;;;5049355;28;20488;-68
2023/05/01 06:17:36;;;;;;;25.30;16.90;;;11.50;32.50;;;;;;5047015;28;20599;-68
2023/05/01 06:20:04;;;;;;;18.33;11.47;;;11.50;32.50;;;;;;5043705;28;20957;-67
2023/05/01 06:22:32;;;;;;;13.83;10.77;;;11.50;32.40;;;;;;5046526;28;20843;-68
2023/05/01 06:24:59;;;;;;;15.13;10.87;;;11.50;32.30;;;;;;5049690;28;20907;-68
2023/05/01 06:27:26;;;;;;;13.27;9.90;;;11.50;32.40;;;;;;5045863;28;20469;-68
2023/05/01 06:29:53;;;;;;;12.50;9.70;;;11.60;32.40;;;;;;5044972;28;20466;-69
2023/05/01 06:32:19;;;;;;;10.63;9.40;;;11.60;32.30;;;;;;5045586;28;20478;-68
2023/05/01 06:34:46;;;;;;;12.87;10.20;;;11.60;32.30;;;;;;5049270;28;20595;-68
2023/05/01 06:37:13;;;;;;;12.40;9.60;;;11.70;32.40;;;;;;5047257;28;20486;-68
2023/05/01 06:39:41;;;;;;;13.13;8.90;;;11.70;32.40;;;;;;5046607;28;21011;-69
2023/05/01 06:42:10;;;;;;;12.67;9.57;;;11.80;32.40;;;;;;5044855;28;20496;-68
2023/05/01 06:44:37;;;;;;;10.87;9.03;;;11.80;32.30;;;;;;5044410;28;20865;-68
2023/05/01 06:47:04;;;;;;;12.10;8.17;;;11.90;32.30;;;;;;5048425;28;20461;-67
2023/05/01 06:49:30;;;;;;;11.97;9.57;;;11.90;32.20;;;;;;5037375;28;20488;-67
2023/05/01 06:51:57;;;;;;;12.00;9.00;;;12.00;31.80;;;;;;5043712;28;20489;-68
2023/05/01 06:54:25;;;;;;;13.10;9.30;;;12.00;31.90;;;;;;5044160;28;20990;-67
2023/05/01 06:56:53;;;;;;;11.40;8.37;;;12.10;31.70;;;;;;5045484;28;20462;-68
2023/05/01 06:59:20;;;;;;;12.60;8.77;;;12.20;31.40;;;;;;5043276;28;20486;-68
2023/05/01 07:01:47;;;;;;;13.03;8.40;;;12.30;31.00;;;;;;5046156;28;21037;-68
2023/05/01 07:04:13;;;;;;;11.60;8.07;;;12.40;30.40;;;;;;5040015;28;20826;-68
2023/05/01 07:06:40;;;;;;;10.77;8.90;;;12.50;30.20;;;;;;5041841;28;20466;-68
2023/05/01 07:09:07;;;;;;;12.77;9.33;;;12.60;30.00;;;;;;5044030;28;20989;-68
2023/05/01 07:11:34;;;;;;;10.57;8.23;;;12.70;29.90;;;;;;5046895;28;21080;-68
2023/05/01 07:14:02;;;;;;;11.23;8.70;;;12.80;29.70;;;;;;5044224;28;20466;-68
2023/05/01 07:16:29;;;;;;;11.97;7.60;;;12.90;29.40;;;;;;5050007;28;20511;-66
2023/05/01 07:18:56;;;;;;;10.63;7.97;;;13.00;28.60;;;;;;5061442;28;20485;-69
2023/05/01 07:21:22;;;;;;;10.47;7.80;;;13.00;28.20;;;;;;5045654;28;20481;-67
2023/05/01 07:23:49;;;;;;;10.87;8.30;;;12.90;27.20;;;;;;5045793;28;20465;-68
2023/05/01 07:26:16;;;;;;;9.33;8.10;;;12.90;27.00;;;;;;5043714;28;20915;-67
2023/05/01 07:28:43;;;;;;;12.23;9.37;;;12.90;27.00;;;;;;5039279;28;20470;-68
2023/05/01 07:31:11;;;;;;;12.70;8.30;;;12.90;27.00;;;;;;5041860;28;20505;-66
2023/05/01 07:33:38;;;;;;;11.37;8.57;;;13.00;26.80;;;;;;5048656;28;21029;-68
2023/05/01 07:36:05;;;;;;;9.73;7.73;;;12.90;27.00;;;;;;5041911;28;20474;-68
2023/05/01 07:38:32;;;;;;;12.53;9.17;;;13.00;27.30;;;;;;5042985;28;20487;-65
2023/05/01 07:43:28;;;;;;;9.13;8.03;;;12.90;27.40;;;;;;5034235;28;20904;-67
2023/05/01 07:45:57;;;;;;;10.73;8.37;;;13.00;27.20;;;;;;5040179;28;20504;-66
2023/05/01 07:48:25;;;;;;;11.40;8.53;;;13.00;27.00;;;;;;5042356;28;20491;-66
2023/05/01 07:50:54;;;;;;;9.53;7.70;;;12.90;26.80;;;;;;5032626;28;20489;-66
2023/05/01 07:53:22;;;;;;;10.97;7.83;;;12.90;26.80;;;;;;5049408;28;20462;-68
2023/05/01 07:55:49;;;;;;;11.50;7.30;;;12.90;26.60;;;;;;5047829;28;21627;-68
2023/05/01 07:58:16;;;;;;;9.87;7.47;;;12.80;25.60;;;;;;5045660;28;20471;-68
2023/05/01 08:00:44;;;;;;;11.10;9.43;;;12.70;25.70;;;;;;5046422;28;20478;-67
2023/05/01 08:03:12;;;;;;;10.50;8.67;;;12.70;26.00;;;;;;5047399;28;21071;-70
2023/05/01 08:05:41;;;;;;;14.10;8.80;;;12.80;26.50;;;;;;5044588;28;20502;-67
2023/05/01 08:08:08;;;;;;;10.60;8.17;;;12.90;26.20;;;;;;5045395;28;21073;-67
2023/05/01 08:10:35;;;;;;;11.87;8.43;;;12.90;26.50;;;;;;5046192;28;20493;-67
2023/05/01 08:13:01;;;;;;;12.43;9.07;;;12.90;26.80;;;;;;5047692;28;20466;-69
2023/05/01 08:15:28;;;;;;;11.33;9.13;;;13.00;26.80;;;;;;5030777;28;20465;-67
2023/05/01 08:17:55;;;;;;;11.30;9.67;;;13.00;26.80;;;;;;5046525;28;20565;-67
2023/05/01 08:20:22;;;;;;;12.33;8.70;;;13.00;26.80;;;;;;5044254;28;20489;-65
2023/05/01 08:22:50;;;;;;;10.00;8.20;;;13.10;26.40;;;;;;5037965;28;20477;-67
2023/05/01 08:25:17;;;;;;;10.23;8.23;;;13.10;26.10;;;;;;5043129;28;20493;-66
2023/05/01 08:27:43;;;;;;;10.37;8.33;;;13.20;26.10;;;;;;5032888;28;20860;-68
2023/05/01 08:30:10;;;;;;;9.10;7.70;;;13.20;25.50;;;;;;5037053;28;20469;-69
2023/05/01 08:32:37;;;;;;;10.50;8.20;;;13.30;25.20;;;;;;5037116;28;20451;-66
2023/05/01 08:35:04;;;;;;;10.80;7.83;;;13.40;24.90;;;;;;5033251;28;20477;-68
2023/05/01 08:37:31;;;;;;;9.60;7.90;;;13.50;24.90;;;;;;5038682;28;20465;-68
2023/05/01 08:39:59;;;;;;;11.77;9.60;;;13.60;25.10;;;;;;5041817;28;20482;-68
2023/05/01 08:42:26;;;;;;;11.50;9.20;;;13.60;25.00;;;;;;5031361;28;20462;-66
2023/05/01 08:44:58;;;;;;;10.73;8.50;;;13.70;24.60;;;;;;5040826;28;20458;-66
2023/05/01 08:47:26;;;;;;;11.10;8.87;;;13.70;24.60;;;;;;5030882;28;20464;-66
2023/05/01 08:49:54;;;;;;;9.63;8.63;;;13.70;24.80;;;;;;5036521;28;20476;-67
2023/05/01 08:52:22;;;;;;;12.00;8.63;;;13.80;24.90;;;;;;5033470;28;20481;-67
2023/05/01 08:54:53;;;;;;;11.83;9.30;;;13.90;25.30;;;;;;5038560;28;21469;-65
2023/05/01 08:57:21;;;;;;;12.40;9.70;;;14.00;25.10;;;;;;5046541;28;20993;-65
2023/05/01 08:59:52;;;;;;;10.50;9.10;;;14.00;24.20;;;;;;5037732;28;20494;-66
2023/05/01 09:02:19;;;;;;;11.13;9.03;;;14.10;24.80;;;;;;5041287;28;20517;-66
2023/05/01 09:04:48;;;;;;;9.60;8.40;;;14.20;24.40;;;;;;5043040;28;21560;-66
2023/05/01 09:07:16;;;;;;;13.13;9.60;;;14.30;24.30;;;;;;5039558;28;20521;-66
2023/05/01 09:09:44;;;;;;;11.07;8.80;;;14.40;24.20;;;;;;5045692;28;20461;-66
2023/05/01 09:12:19;;;;;;;11.40;9.20;;;14.50;23.20;;;;;;5044661;28;20493;-66
2023/05/01 09:14:47;;;;;;;11.57;9.47;;;14.50;22.40;;;;;;5044220;28;20484;-66
2023/05/01 09:17:15;;;;;;;11.83;9.50;;;14.60;21.20;;;;;;5040745;28;21326;-66
2023/05/01 09:19:42;;;;;;;10.57;8.47;;;14.60;21.60;;;;;;5037523;28;20496;-66
2023/05/01 09:22:09;;;;;;;10.00;8.87;;;14.70;21.60;;;;;;5046013;28;20493;-66
2023/05/01 09:24:36;;;;;;;15.10;8.90;;;14.80;20.50;;;;;;5039226;28;20462;-66
2023/05/01 09:27:03;;;;;;;11.27;9.20;;;14.90;20.20;;;;;;5045693;28;20485;-68
2023/05/01 09:29:40;;;;;;;11.77;9.50;;;14.80;20.10;;;;;;5034511;28;20856;-68
2023/05/01 09:32:19;;;;;;;11.97;9.27;;;14.90;20.30;;;;;;5041755;28;20478;-66
2023/05/01 09:34:47;;;;;;;12.33;9.63;;;14.90;20.10;;;;;;5043744;28;20461;-66
2023/05/01 09:37:26;;;;;;;10.60;9.50;;;15.00;20.30;;;;;;5041732;28;20468;-66
2023/05/01 09:40:05;;;;;;;10.17;8.70;;;15.00;21.40;;;;;;5044088;28;20513;-66
2023/05/01 09:42:32;;;;;;;10.63;8.97;;;15.10;21.30;;;;;;5046059;28;20493;-67
2023/05/01 09:44:59;;;;;;;12.03;9.23;;;15.20;20.10;;;;;;5046923;28;20470;-66
2023/05/01 09:47:28;;;;;;;11.00;8.80;;;15.30;20.00;;;;;;5048995;28;20497;-66
2023/05/01 09:49:56;;;;;;;12.50;9.00;;;15.40;20.20;;;;;;5046823;28;20466;-66
2023/05/01 09:52:23;;;;;;;10.60;8.83;;;15.50;20.00;;;;;;5040550;28;20504;-67
2023/05/01 09:54:49;;;;;;;11.20;9.20;;;15.70;19.50;;;;;;5046505;28;20466;-68
2023/05/01 09:57:16;;;;;;;10.20;8.40;;;15.90;19.20;;;;;;5047995;28;20473;-66
2023/05/01 09:59:43;;;;;;;9.67;8.67;;;16.00;18.70;;;;;;5040077;28;20478;-66
2023/05/01 10:02:29;;;;;;;56.00;50.20;;;16.20;18.50;;;;;;5049694;28;20473;-64
2023/05/01 10:04:58;;;;;;;79.23;70.70;;;16.30;18.30;;;;;;5047074;28;20514;-67
2023/05/01 10:07:26;;;;;;;25.67;22.90;;;16.50;18.00;;;;;;5041322;28;20466;-66
2023/05/01 10:09:54;;;;;;;16.77;12.80;;;16.60;17.80;;;;;;5045688;28;20723;-66
2023/05/01 10:12:25;;;;;;;10.40;9.30;;;16.80;17.30;;;;;;5044918;28;20498;-66
2023/05/01 10:14:52;;;;;;;14.07;9.40;;;16.90;16.70;;;;;;5047121;28;20539;-67
2023/05/01 10:17:19;;;;;;;11.00;8.90;;;17.00;16.00;;;;;;5046457;28;20469;-67
2023/05/01 10:19:48;;;;;;;11.50;9.37;;;17.00;15.30;;;;;;5045492;28;20543;-67
2023/05/01 10:22:16;;;;;;;11.70;9.50;;;17.00;15.30;;;;;;5044203;28;20482;-66
2023/05/01 10:24:44;;;;;;;10.47;8.60;;;17.20;15.00;;;;;;5043734;28;20462;-66
2023/05/01 10:27:13;;;;;;;11.10;9.17;;;17.40;15.40;;;;;;5050046;28;20962;-66
2023/05/01 10:29:41;;;;;;;11.43;8.53;;;17.60;14.90;;;;;;5048530;28;20829;-67
2023/05/01 10:32:09;;;;;;;8.97;7.70;;;17.80;13.40;;;;;;5049316;28;20491;-67
2023/05/01 10:34:38;;;;;;;10.67;9.17;;;18.00;13.50;;;;;;5044070;28;20472;-67
2023/05/01 10:37:12;;;;;;;11.03;9.43;;;18.20;12.90;;;;;;5049986;28;20462;-68
2023/05/01 10:39:39;;;;;;;11.03;8.67;;;18.40;12.70;;;;;;5043250;28;20509;-68
2023/05/01 10:42:09;;;;;;;10.37;8.17;;;18.50;12.30;;;;;;5044338;28;20990;-68
2023/05/01 10:44:37;;;;;;;11.63;9.63;;;18.60;12.00;;;;;;5048592;28;20481;-68
2023/05/01 10:47:40;;;;;;;13.37;9.70;;;18.90;11.90;;;;;;5047102;28;20923;-68
2023/05/01 10:50:08;;;;;;;9.50;7.90;;;19.10;11.00;;;;;;5041772;28;20986;-68
2023/05/01 10:53:11;;;;;;;10.57;8.80;;;19.40;11.10;;;;;;5041003;28;20469;-69
2023/05/01 10:55:42;;;;;;;10.03;8.53;;;19.60;11.00;;;;;;5046259;28;20467;-68
2023/05/01 10:58:09;;;;;;;9.63;7.73;;;19.90;10.40;;;;;;5046336;28;20561;-69
2023/05/01 11:00:36;;;;;;;10.33;8.17;;;20.10;10.10;;;;;;5047781;28;21009;-69
2023/05/01 11:03:34;;;;;;;10.87;8.50;;;20.30;9.50;;;;;;5037543;28;20587;-69
2023/05/01 11:06:08;;;;;;;11.67;8.60;;;20.60;8.30;;;;;;5047628;28;20512;-67
2023/05/01 11:08:36;;;;;;;9.83;7.87;;;20.70;8.30;;;;;;5044156;28;20480;-66
2023/05/01 11:11:50;;;;;;;9.07;7.87;;;20.80;8.50;;;;;;5046310;28;21006;-67
2023/05/01 11:14:19;;;;;;;10.20;8.80;;;21.00;9.00;;;;;;4964084;28;20470;-66
2023/05/01 11:16:47;;;;;;;10.40;8.13;;;21.10;8.20;;;;;;4963560;28;20480;-68
2023/05/01 11:19:49;;;;;;;9.30;7.80;;;21.10;7.10;;;;;;5003291;28;20497;-69
2023/05/01 11:22:17;;;;;;;9.50;7.93;;;21.10;7.00;;;;;;5038343;28;20484;-67
2023/05/01 11:24:43;;;;;;;10.00;8.30;;;21.30;6.80;;;;;;5047992;28;21057;-67
2023/05/01 11:27:15;;;;;;;10.30;9.20;;;21.40;6.60;;;;;;5048511;28;20480;-66
2023/05/01 11:29:47;;;;;;;9.60;8.07;;;21.40;6.30;;;;;;5044606;28;20459;-66
2023/05/01 11:32:19;;;;;;;8.93;6.90;;;21.50;6.20;;;;;;5049051;28;20515;-66
2023/05/01 11:34:46;;;;;;;9.73;7.77;;;21.50;6.90;;;;;;5047481;28;20462;-66
2023/05/01 11:37:13;;;;;;;9.43;7.90;;;21.70;6.80;;;;;;5047857;28;20458;-66
2023/05/01 11:39:50;;;;;;;10.90;8.20;;;21.90;5.90;;;;;;5048050;28;20583;-66
2023/05/01 11:42:22;;;;;;;10.50;7.60;;;22.00;6.30;;;;;;5044922;28;20484;-67
2023/05/01 11:45:09;;;;;;;8.73;7.73;;;22.20;6.80;;;;;;5045738;28;20497;-68
2023/05/01 11:47:36;;;;;;;10.83;6.90;;;22.30;4.70;;;;;;5049430;28;21049;-67
2023/05/01 11:50:03;;;;;;;8.60;7.00;;;22.30;4.80;;;;;;5050530;28;20779;-66
2023/05/01 11:52:30;;;;;;;8.63;6.77;;;22.30;4.20;;;;;;5048932;28;21037;-66
2023/05/01 11:54:56;;;;;;;9.50;7.43;;;22.10;5.40;;;;;;5046994;28;20466;-67
2023/05/01 11:57:25;;;;;;;8.40;7.10;;;21.90;5.60;;;;;;5047173;28;20537;-67
2023/05/01 11:59:51;;;;;;;10.60;8.37;;;21.80;5.90;;;;;;5044568;28;20967;-67
2023/05/01 12:02:19;;;;;;;9.37;8.00;;;21.60;6.20;;;;;;5043187;28;20482;-68
2023/05/01 12:04:46;;;;;;;9.50;7.37;;;21.50;6.50;;;;;;5043962;28;20497;-68
2023/05/01 12:07:20;;;;;;;7.63;6.43;;;21.50;6.60;;;;;;5047920;28;20568;-67
2023/05/01 12:09:48;;;;;;;9.03;7.03;;;21.60;6.40;;;;;;5044407;28;20939;-67
2023/05/01 12:12:15;;;;;;;8.00;6.47;;;21.60;7.10;;;;;;5040892;28;20575;-67
2023/05/01 12:14:43;;;;;;;8.40;6.90;;;21.60;6.70;;;;;;5048653;28;20468;-66
2023/05/01 12:17:10;;;;;;;10.07;6.27;;;21.60;7.30;;;;;;5044237;28;20484;-66
2023/05/01 12:19:47;;;;;;;9.10;6.60;;;21.70;7.30;;;;;;5046650;28;20493;-66
2023/05/01 12:22:14;;;;;;;9.00;6.03;;;21.70;6.90;;;;;;5047862;28;21001;-67
2023/05/01 12:24:50;;;;;;;9.90;6.70;;;21.70;6.00;;;;;;5044462;28;20466;-67
2023/05/01 12:27:16;;;;;;;9.53;6.70;;;21.60;6.20;;;;;;5044905;28;20519;-68
2023/05/01 12:29:46;;;;;;;7.20;5.90;;;21.60;6.60;;;;;;5043749;28;20479;-67
2023/05/01 12:32:14;;;;;;;9.20;6.60;;;21.70;6.50;;;;;;5045391;28;20560;-67
2023/05/01 12:34:41;;;;;;;10.37;6.23;;;21.80;6.50;;;;;;5044743;28;20458;-67
2023/05/01 12:37:08;;;;;;;8.10;6.00;;;21.80;5.60;;;;;;5045931;28;20490;-67
2023/05/01 12:39:41;;;;;;;7.50;6.33;;;21.80;5.30;;;;;;5046606;28;20868;-67
2023/05/01 12:42:15;;;;;;;9.20;6.90;;;21.80;5.30;;;;;;5047089;28;20485;-67
2023/05/01 12:44:44;;;;;;;7.90;5.73;;;21.60;5.80;;;;;;5042171;28;20464;-67
2023/05/01 12:47:12;;;;;;;7.17;5.80;;;21.30;6.30;;;;;;5048766;28;20458;-68
2023/05/01 12:49:40;;;;;;;8.40;6.57;;;21.10;6.60;;;;;;5042289;28;20459;-67